sensor_id;sensor_type;location;lat;lon;timestamp;temperature;humidity
24374;DHT22;12498;50.880;12.096;2022-12-07T00:03:38;3.10;99.90
24374;DHT22;12498;50.880;12.096;2022-12-07T00:06:06;3.10;99.90
24374;DHT22;12498;50.880;12.096;2022-12-07T00:08:34;3.10;99.90
24374;DHT22;12498;50.880;12.096;2022-12-07T00:11:12;3.00;99.90
24374;DHT22;12498;50.880;12.096;2022-12-07T00:13:38;3.00;99.90
24374;DHT22;12498;50.880;12.096;2022-12-07T00:16:09;3.00;99.90
24374;DHT22;12498;50.880;12.096;2022-12-07T00:18:36;3.00;99.90
24374;DHT22;12498;50.880;12.096;2022-12-07T00:23:34;2.80;99.90
24374;DHT22;12498;50.880;12.096;2022-12-07T00:26:11;2.80;99.90
24374;DHT22;12498;50.880;12.096;2022-12-07T00:28:37;2.70;99.90
24374;DHT22;12498;50.880;12.096;2022-12-07T00:31:13;2.70;99.90
24374;DHT22;12498;50.880;12.096;2022-12-07T00:33:39;2.70;99.90
24374;DHT22;12498;50.880;12.096;2022-12-07T00:36:07;2.70;99.90
24374;DHT22;12498;50.880;12.096;2022-12-07T00:38:35;2.60;99.90
24374;DHT22;12498;50.880;12.096;2022-12-07T00:41:03;2.60;99.90
24374;DHT22;12498;50.880;12.096;2022-12-07T00:43:29;2.50;99.90
24374;DHT22;12498;50.880;12.096;2022-12-07T00:45:55;2.40;99.90
24374;DHT22;12498;50.880;12.096;2022-12-07T00:48:21;2.30;99.90
24374;DHT22;12498;50.880;12.096;2022-12-07T00:50:48;2.20;99.90
24374;DHT22;12498;50.880;12.096;2022-12-07T00:53:13;2.20;99.90
24374;DHT22;12498;50.880;12.096;2022-12-07T00:55:39;2.20;99.90
24374;DHT22;12498;50.880;12.096;2022-12-07T00:58:05;2.10;99.90
24374;DHT22;12498;50.880;12.096;2022-12-07T01:00:31;2.00;99.90
24374;DHT22;12498;50.880;12.096;2022-12-07T01:02:58;2.00;99.90
24374;DHT22;12498;50.880;12.096;2022-12-07T01:05:24;2.00;99.90
24374;DHT22;12498;50.880;12.096;2022-12-07T01:07:49;2.00;99.90
24374;DHT22;12498;50.880;12.096;2022-12-07T01:10:15;1.90;99.90
24374;DHT22;12498;50.880;12.096;2022-12-07T01:12:41;1.90;99.90
24374;DHT22;12498;50.880;12.096;2022-12-07T01:15:07;1.90;99.90
24374;DHT22;12498;50.880;12.096;2022-12-07T01:17:33;1.90;99.90
24374;DHT22;12498;50.880;12.096;2022-12-07T01:19:59;1.90;99.90
24374;DHT22;12498;50.880;12.096;2022-12-07T01:22:25;1.90;99.90
24374;DHT22;12498;50.880;12.096;2022-12-07T01:24:51;1.80;99.90
24374;DHT22;12498;50.880;12.096;2022-12-07T01:27:17;1.80;99.90
24374;DHT22;12498;50.880;12.096;2022-12-07T01:29:43;1.80;99.90
24374;DHT22;12498;50.880;12.096;2022-12-07T01:32:08;1.80;99.90
24374;DHT22;12498;50.880;12.096;2022-12-07T01:34:34;1.80;99.90
24374;DHT22;12498;50.880;12.096;2022-12-07T01:37:00;1.80;99.90
24374;DHT22;12498;50.880;12.096;2022-12-07T01:39:25;1.80;99.90
24374;DHT22;12498;50.880;12.096;2022-12-07T01:41:52;1.80;99.90
24374;DHT22;12498;50.880;12.096;2022-12-07T01:49:39;1.70;99.90
24374;DHT22;12498;50.880;12.096;2022-12-07T01:52:28;1.70;99.90
24374;DHT22;12498;50.880;12.096;2022-12-07T01:54:58;1.70;99.90
24374;DHT22;12498;50.880;12.096;2022-12-07T01:57:24;1.70;99.90
24374;DHT22;12498;50.880;12.096;2022-12-07T01:59:51;1.70;99.90
24374;DHT22;12498;50.880;12.096;2022-12-07T02:02:21;1.60;99.90
24374;DHT22;12498;50.880;12.096;2022-12-07T02:04:49;1.60;99.90
24374;DHT22;12498;50.880;12.096;2022-12-07T02:07:16;1.60;99.90
24374;DHT22;12498;50.880;12.096;2022-12-07T02:09:42;1.60;99.90
24374;DHT22;12498;50.880;12.096;2022-12-07T02:12:07;3.40;99.90
24374;DHT22;12498;50.880;12.096;2022-12-07T02:14:33;1.60;99.90
24374;DHT22;12498;50.880;12.096;2022-12-07T02:17:08;1.60;99.90
24374;DHT22;12498;50.880;12.096;2022-12-07T02:27:38;1.70;99.90
24374;DHT22;12498;50.880;12.096;2022-12-07T02:30:11;1.70;99.90
24374;DHT22;12498;50.880;12.096;2022-12-07T02:32:56;1.70;99.90
24374;DHT22;12498;50.880;12.096;2022-12-07T02:38:35;1.70;99.90
24374;DHT22;12498;50.880;12.096;2022-12-07T02:43:48;1.70;99.90
24374;DHT22;12498;50.880;12.096;2022-12-07T02:46:29;1.70;99.90
24374;DHT22;12498;50.880;12.096;2022-12-07T02:48:56;1.70;99.90
24374;DHT22;12498;50.880;12.096;2022-12-07T02:51:24;1.70;99.90
24374;DHT22;12498;50.880;12.096;2022-12-07T02:53:50;1.70;99.90
24374;DHT22;12498;50.880;12.096;2022-12-07T03:13:07;1.80;99.90
24374;DHT22;12498;50.880;12.096;2022-12-07T03:15:49;1.80;99.90
24374;DHT22;12498;50.880;12.096;2022-12-07T03:18:22;1.80;99.90
24374;DHT22;12498;50.880;12.096;2022-12-07T03:20:51;1.80;99.90
24374;DHT22;12498;50.880;12.096;2022-12-07T03:23:19;1.90;99.90
24374;DHT22;12498;50.880;12.096;2022-12-07T03:25:49;1.90;99.90
24374;DHT22;12498;50.880;12.096;2022-12-07T03:28:21;1.90;99.90
24374;DHT22;12498;50.880;12.096;2022-12-07T03:30:50;1.90;99.90
24374;DHT22;12498;50.880;12.096;2022-12-07T03:33:22;1.90;99.90
24374;DHT22;12498;50.880;12.096;2022-12-07T03:36:04;1.90;99.90
24374;DHT22;12498;50.880;12.096;2022-12-07T03:38:53;1.90;99.90
24374;DHT22;12498;50.880;12.096;2022-12-07T03:41:25;1.90;99.90
24374;DHT22;12498;50.880;12.096;2022-12-07T03:43:54;1.90;99.90
24374;DHT22;12498;50.880;12.096;2022-12-07T03:46:37;1.90;99.90
24374;DHT22;12498;50.880;12.096;2022-12-07T03:49:17;1.90;99.90
24374;DHT22;12498;50.880;12.096;2022-12-07T03:54:37;2.00;99.90
24374;DHT22;12498;50.880;12.096;2022-12-07T03:57:06;2.00;99.90
24374;DHT22;12498;50.880;12.096;2022-12-07T03:59:32;2.00;99.90
24374;DHT22;12498;50.880;12.096;2022-12-07T04:02:03;2.10;99.90
24374;DHT22;12498;50.880;12.096;2022-12-07T04:04:29;2.20;99.90
24374;DHT22;12498;50.880;12.096;2022-12-07T04:06:55;2.20;99.90
24374;DHT22;12498;50.880;12.096;2022-12-07T04:09:21;2.30;99.90
24374;DHT22;12498;50.880;12.096;2022-12-07T04:11:47;2.30;99.90
24374;DHT22;12498;50.880;12.096;2022-12-07T04:14:13;2.40;99.90
24374;DHT22;12498;50.880;12.096;2022-12-07T04:16:51;2.40;99.90
24374;DHT22;12498;50.880;12.096;2022-12-07T04:19:19;3.70;99.90
24374;DHT22;12498;50.880;12.096;2022-12-07T04:21:45;2.50;99.90
24374;DHT22;12498;50.880;12.096;2022-12-07T04:24:13;2.50;99.90
24374;DHT22;12498;50.880;12.096;2022-12-07T04:26:39;2.50;99.90
24374;DHT22;12498;50.880;12.096;2022-12-07T04:29:05;2.50;99.90
24374;DHT22;12498;50.880;12.096;2022-12-07T04:31:30;2.60;99.90
24374;DHT22;12498;50.880;12.096;2022-12-07T04:33:56;2.60;99.90
24374;DHT22;12498;50.880;12.096;2022-12-07T04:36:22;2.50;99.90
24374;DHT22;12498;50.880;12.096;2022-12-07T04:38:47;2.40;99.90
24374;DHT22;12498;50.880;12.096;2022-12-07T04:41:17;2.40;99.90
24374;DHT22;12498;50.880;12.096;2022-12-07T04:43:43;2.40;99.90
24374;DHT22;12498;50.880;12.096;2022-12-07T04:46:08;2.20;99.90
24374;DHT22;12498;50.880;12.096;2022-12-07T04:48:34;2.20;99.90
24374;DHT22;12498;50.880;12.096;2022-12-07T04:51:00;0.10;99.90
24374;DHT22;12498;50.880;12.096;2022-12-07T04:53:25;2.10;99.90
24374;DHT22;12498;50.880;12.096;2022-12-07T04:55:51;2.10;99.90
24374;DHT22;12498;50.880;12.096;2022-12-07T04:58:17;2.10;99.90
24374;DHT22;12498;50.880;12.096;2022-12-07T05:00:42;2.10;99.90
24374;DHT22;12498;50.880;12.096;2022-12-07T05:03:08;2.10;99.90
24374;DHT22;12498;50.880;12.096;2022-12-07T05:05:33;2.00;99.90
24374;DHT22;12498;50.880;12.096;2022-12-07T05:07:59;2.10;99.90
24374;DHT22;12498;50.880;12.096;2022-12-07T05:10:25;2.10;99.90
24374;DHT22;12498;50.880;12.096;2022-12-07T05:12:50;2.10;99.90
24374;DHT22;12498;50.880;12.096;2022-12-07T05:15:16;2.20;99.90
24374;DHT22;12498;50.880;12.096;2022-12-07T05:17:42;2.20;99.90
24374;DHT22;12498;50.880;12.096;2022-12-07T05:20:08;2.20;99.90
24374;DHT22;12498;50.880;12.096;2022-12-07T05:22:34;2.20;99.90
24374;DHT22;12498;50.880;12.096;2022-12-07T05:25:00;2.20;99.90
24374;DHT22;12498;50.880;12.096;2022-12-07T05:27:26;2.20;99.90
24374;DHT22;12498;50.880;12.096;2022-12-07T05:29:52;2.50;99.90
24374;DHT22;12498;50.880;12.096;2022-12-07T05:32:18;2.80;99.90
24374;DHT22;12498;50.880;12.096;2022-12-07T05:34:44;3.10;99.90
24374;DHT22;12498;50.880;12.096;2022-12-07T05:37:09;3.30;99.90
24374;DHT22;12498;50.880;12.096;2022-12-07T05:39:35;3.20;99.90
24374;DHT22;12498;50.880;12.096;2022-12-07T05:42:10;3.20;99.90
24374;DHT22;12498;50.880;12.096;2022-12-07T05:44:43;3.40;99.90
24374;DHT22;12498;50.880;12.096;2022-12-07T05:47:10;3.20;99.90
24374;DHT22;12498;50.880;12.096;2022-12-07T05:49:35;2.90;99.90
24374;DHT22;12498;50.880;12.096;2022-12-07T05:52:01;2.80;99.90
24374;DHT22;12498;50.880;12.096;2022-12-07T05:54:27;2.70;99.90
24374;DHT22;12498;50.880;12.096;2022-12-07T05:56:53;2.60;99.90
24374;DHT22;12498;50.880;12.096;2022-12-07T05:59:19;2.50;99.90
24374;DHT22;12498;50.880;12.096;2022-12-07T06:01:48;2.40;99.90
24374;DHT22;12498;50.880;12.096;2022-12-07T06:04:14;2.40;99.90
24374;DHT22;12498;50.880;12.096;2022-12-07T06:06:39;2.30;99.90
24374;DHT22;12498;50.880;12.096;2022-12-07T06:09:05;2.30;99.90
24374;DHT22;12498;50.880;12.096;2022-12-07T06:11:31;2.30;99.90
24374;DHT22;12498;50.880;12.096;2022-12-07T06:14:15;2.30;99.90
24374;DHT22;12498;50.880;12.096;2022-12-07T06:16:41;2.30;99.90
24374;DHT22;12498;50.880;12.096;2022-12-07T06:19:06;2.30;99.90
24374;DHT22;12498;50.880;12.096;2022-12-07T06:21:32;2.30;99.90
24374;DHT22;12498;50.880;12.096;2022-12-07T06:23:57;2.30;99.90
24374;DHT22;12498;50.880;12.096;2022-12-07T06:26:23;2.30;99.90
24374;DHT22;12498;50.880;12.096;2022-12-07T06:28:49;2.30;99.90
24374;DHT22;12498;50.880;12.096;2022-12-07T06:31:15;2.40;99.90
24374;DHT22;12498;50.880;12.096;2022-12-07T06:33:41;2.40;99.90
24374;DHT22;12498;50.880;12.096;2022-12-07T06:36:07;2.40;99.90
24374;DHT22;12498;50.880;12.096;2022-12-07T06:38:33;2.40;99.90
24374;DHT22;12498;50.880;12.096;2022-12-07T06:40:58;2.40;99.90
24374;DHT22;12498;50.880;12.096;2022-12-07T06:43:24;2.40;99.90
24374;DHT22;12498;50.880;12.096;2022-12-07T06:45:50;2.50;99.90
24374;DHT22;12498;50.880;12.096;2022-12-07T06:48:16;2.50;99.90
24374;DHT22;12498;50.880;12.096;2022-12-07T06:50:45;2.50;99.90
24374;DHT22;12498;50.880;12.096;2022-12-07T06:53:14;2.50;99.90
24374;DHT22;12498;50.880;12.096;2022-12-07T06:55:40;2.60;99.90
24374;DHT22;12498;50.880;12.096;2022-12-07T06:58:05;2.60;99.90
24374;DHT22;12498;50.880;12.096;2022-12-07T07:00:31;2.60;99.90
24374;DHT22;12498;50.880;12.096;2022-12-07T07:02:56;2.60;99.90
24374;DHT22;12498;50.880;12.096;2022-12-07T07:05:22;2.60;99.90
24374;DHT22;12498;50.880;12.096;2022-12-07T07:07:49;2.60;99.90
24374;DHT22;12498;50.880;12.096;2022-12-07T07:10:15;2.60;99.90
24374;DHT22;12498;50.880;12.096;2022-12-07T07:12:40;2.70;99.90
24374;DHT22;12498;50.880;12.096;2022-12-07T07:15:06;2.70;99.90
24374;DHT22;12498;50.880;12.096;2022-12-07T07:17:32;2.60;99.90
24374;DHT22;12498;50.880;12.096;2022-12-07T07:19:58;2.70;99.90
24374;DHT22;12498;50.880;12.096;2022-12-07T07:22:24;2.70;99.90
24374;DHT22;12498;50.880;12.096;2022-12-07T07:24:49;2.70;99.90
24374;DHT22;12498;50.880;12.096;2022-12-07T07:27:15;2.80;99.90
24374;DHT22;12498;50.880;12.096;2022-12-07T07:29:40;2.80;99.90
24374;DHT22;12498;50.880;12.096;2022-12-07T07:32:06;2.90;99.90
24374;DHT22;12498;50.880;12.096;2022-12-07T07:34:33;2.80;99.90
24374;DHT22;12498;50.880;12.096;2022-12-07T07:36:59;2.90;99.90
24374;DHT22;12498;50.880;12.096;2022-12-07T07:39:24;3.00;99.90
24374;DHT22;12498;50.880;12.096;2022-12-07T07:41:50;2.90;99.90
24374;DHT22;12498;50.880;12.096;2022-12-07T07:44:15;2.90;99.90
24374;DHT22;12498;50.880;12.096;2022-12-07T07:46:41;2.90;99.90
24374;DHT22;12498;50.880;12.096;2022-12-07T07:49:07;2.80;99.90
24374;DHT22;12498;50.880;12.096;2022-12-07T07:51:34;2.80;99.90
24374;DHT22;12498;50.880;12.096;2022-12-07T07:54:00;2.80;99.90
24374;DHT22;12498;50.880;12.096;2022-12-07T07:56:25;2.80;99.90
24374;DHT22;12498;50.880;12.096;2022-12-07T07:58:52;2.80;99.90
24374;DHT22;12498;50.880;12.096;2022-12-07T08:01:18;2.90;99.90
24374;DHT22;12498;50.880;12.096;2022-12-07T08:03:46;2.90;99.90
24374;DHT22;12498;50.880;12.096;2022-12-07T08:06:12;2.90;99.90
24374;DHT22;12498;50.880;12.096;2022-12-07T08:08:37;2.90;99.90
24374;DHT22;12498;50.880;12.096;2022-12-07T08:11:07;2.90;99.90
24374;DHT22;12498;50.880;12.096;2022-12-07T08:13:33;3.00;99.90
24374;DHT22;12498;50.880;12.096;2022-12-07T08:16:06;3.00;99.90
24374;DHT22;12498;50.880;12.096;2022-12-07T08:18:40;3.00;99.90
24374;DHT22;12498;50.880;12.096;2022-12-07T08:21:06;3.00;99.90
24374;DHT22;12498;50.880;12.096;2022-12-07T08:23:33;3.10;99.90
24374;DHT22;12498;50.880;12.096;2022-12-07T08:26:03;3.10;99.90
24374;DHT22;12498;50.880;12.096;2022-12-07T08:28:30;3.20;99.90
24374;DHT22;12498;50.880;12.096;2022-12-07T08:31:04;3.20;99.90
24374;DHT22;12498;50.880;12.096;2022-12-07T08:33:31;3.20;99.90
24374;DHT22;12498;50.880;12.096;2022-12-07T08:36:04;3.20;99.90
24374;DHT22;12498;50.880;12.096;2022-12-07T08:38:30;3.30;99.90
24374;DHT22;12498;50.880;12.096;2022-12-07T08:40:57;3.40;99.90
24374;DHT22;12498;50.880;12.096;2022-12-07T08:43:23;3.40;99.90
24374;DHT22;12498;50.880;12.096;2022-12-07T08:48:35;3.40;99.90
24374;DHT22;12498;50.880;12.096;2022-12-07T08:51:02;3.40;99.90
24374;DHT22;12498;50.880;12.096;2022-12-07T08:53:28;3.40;99.90
24374;DHT22;12498;50.880;12.096;2022-12-07T08:55:56;3.40;99.90
24374;DHT22;12498;50.880;12.096;2022-12-07T08:58:22;3.40;99.90
24374;DHT22;12498;50.880;12.096;2022-12-07T09:00:48;3.40;99.90
24374;DHT22;12498;50.880;12.096;2022-12-07T09:03:13;3.50;99.90
24374;DHT22;12498;50.880;12.096;2022-12-07T09:05:39;3.50;99.90
24374;DHT22;12498;50.880;12.096;2022-12-07T09:08:05;3.60;99.90
24374;DHT22;12498;50.880;12.096;2022-12-07T09:10:32;3.60;99.90
24374;DHT22;12498;50.880;12.096;2022-12-07T09:12:58;3.70;99.90
24374;DHT22;12498;50.880;12.096;2022-12-07T09:15:30;3.70;99.90
24374;DHT22;12498;50.880;12.096;2022-12-07T09:17:56;3.80;99.90
24374;DHT22;12498;50.880;12.096;2022-12-07T09:20:22;3.90;99.90
24374;DHT22;12498;50.880;12.096;2022-12-07T09:22:48;3.90;99.90
24374;DHT22;12498;50.880;12.096;2022-12-07T09:25:14;3.90;99.90
24374;DHT22;12498;50.880;12.096;2022-12-07T09:27:43;3.90;99.90
24374;DHT22;12498;50.880;12.096;2022-12-07T09:30:12;4.00;99.90
24374;DHT22;12498;50.880;12.096;2022-12-07T09:32:38;4.00;99.90
24374;DHT22;12498;50.880;12.096;2022-12-07T09:35:04;4.00;99.90
24374;DHT22;12498;50.880;12.096;2022-12-07T09:37:30;4.00;99.90
24374;DHT22;12498;50.880;12.096;2022-12-07T09:40:00;4.10;99.90
24374;DHT22;12498;50.880;12.096;2022-12-07T09:42:38;4.20;99.90
24374;DHT22;12498;50.880;12.096;2022-12-07T09:45:10;4.30;99.90
24374;DHT22;12498;50.880;12.096;2022-12-07T09:47:37;4.20;99.90
24374;DHT22;12498;50.880;12.096;2022-12-07T09:50:27;4.30;99.90
24374;DHT22;12498;50.880;12.096;2022-12-07T09:52:52;4.30;99.90
24374;DHT22;12498;50.880;12.096;2022-12-07T09:55:24;4.40;99.90
24374;DHT22;12498;50.880;12.096;2022-12-07T09:57:51;4.40;99.90
24374;DHT22;12498;50.880;12.096;2022-12-07T10:00:21;4.40;99.90
24374;DHT22;12498;50.880;12.096;2022-12-07T10:02:57;4.50;99.90
24374;DHT22;12498;50.880;12.096;2022-12-07T10:05:31;4.50;99.90
24374;DHT22;12498;50.880;12.096;2022-12-07T10:07:57;4.60;99.90
24374;DHT22;12498;50.880;12.096;2022-12-07T10:10:26;4.50;99.90
24374;DHT22;12498;50.880;12.096;2022-12-07T10:13:01;4.60;99.90
24374;DHT22;12498;50.880;12.096;2022-12-07T10:15:53;4.50;99.90
24374;DHT22;12498;50.880;12.096;2022-12-07T10:21:13;4.50;99.90
24374;DHT22;12498;50.880;12.096;2022-12-07T10:29:34;4.70;99.90
24374;DHT22;12498;50.880;12.096;2022-12-07T10:34:33;4.70;99.90
24374;DHT22;12498;50.880;12.096;2022-12-07T10:37:19;4.80;99.90
24374;DHT22;12498;50.880;12.096;2022-12-07T10:42:29;5.00;99.90
24374;DHT22;12498;50.880;12.096;2022-12-07T10:45:14;5.10;99.90
24374;DHT22;12498;50.880;12.096;2022-12-07T11:04:55;4.90;99.90
24374;DHT22;12498;50.880;12.096;2022-12-07T11:07:51;4.90;99.90
24374;DHT22;12498;50.880;12.096;2022-12-07T11:13:22;4.90;99.90
24374;DHT22;12498;50.880;12.096;2022-12-07T11:16:13;4.90;99.90
24374;DHT22;12498;50.880;12.096;2022-12-07T11:18:52;4.90;99.90
24374;DHT22;12498;50.880;12.096;2022-12-07T11:32:07;5.10;99.90
24374;DHT22;12498;50.880;12.096;2022-12-07T11:37:35;5.40;99.90
24374;DHT22;12498;50.880;12.096;2022-12-07T11:42:41;5.60;99.90
24374;DHT22;12498;50.880;12.096;2022-12-07T11:45:15;5.60;99.90
24374;DHT22;12498;50.880;12.096;2022-12-07T11:47:54;5.70;99.90
24374;DHT22;12498;50.880;12.096;2022-12-07T11:50:45;5.90;99.90
24374;DHT22;12498;50.880;12.096;2022-12-07T11:53:36;6.00;86.60
24374;DHT22;12498;50.880;12.096;2022-12-07T11:56:16;5.90;91.90
24374;DHT22;12498;50.880;12.096;2022-12-07T12:03:47;5.90;93.60
24374;DHT22;12498;50.880;12.096;2022-12-07T12:06:14;5.80;93.60
24374;DHT22;12498;50.880;12.096;2022-12-07T12:08:46;5.70;84.10
24374;DHT22;12498;50.880;12.096;2022-12-07T12:22:37;5.30;99.30
24374;DHT22;12498;50.880;12.096;2022-12-07T12:25:20;5.30;97.40
24374;DHT22;12498;50.880;12.096;2022-12-07T12:27:47;5.40;97.70
24374;DHT22;12498;50.880;12.096;2022-12-07T12:30:33;5.50;99.90
24374;DHT22;12498;50.880;12.096;2022-12-07T12:33:20;5.70;96.60
24374;DHT22;12498;50.880;12.096;2022-12-07T12:46:53;5.80;76.70
24374;DHT22;12498;50.880;12.096;2022-12-07T12:59:30;5.70;76.30
24374;DHT22;12498;50.880;12.096;2022-12-07T13:04:57;5.50;93.80
24374;DHT22;12498;50.880;12.096;2022-12-07T13:31:54;5.20;91.80
24374;DHT22;12498;50.880;12.096;2022-12-07T13:34:37;5.10;90.40
24374;DHT22;12498;50.880;12.096;2022-12-07T13:37:25;5.10;90.20
24374;DHT22;12498;50.880;12.096;2022-12-07T13:39:54;5.00;90.10
24374;DHT22;12498;50.880;12.096;2022-12-07T13:42:41;5.00;89.60
24374;DHT22;12498;50.880;12.096;2022-12-07T13:45:29;4.90;93.10
24374;DHT22;12498;50.880;12.096;2022-12-07T13:50:57;4.80;96.80
24374;DHT22;12498;50.880;12.096;2022-12-07T13:53:24;4.80;99.90
24374;DHT22;12498;50.880;12.096;2022-12-07T13:55:50;4.80;99.90
24374;DHT22;12498;50.880;12.096;2022-12-07T13:58:16;4.60;99.90
24374;DHT22;12498;50.880;12.096;2022-12-07T14:00:43;4.70;99.90
24374;DHT22;12498;50.880;12.096;2022-12-07T14:05:39;4.50;99.90
24374;DHT22;12498;50.880;12.096;2022-12-07T14:08:24;4.50;99.90
24374;DHT22;12498;50.880;12.096;2022-12-07T14:13:31;4.30;99.90
24374;DHT22;12498;50.880;12.096;2022-12-07T14:16:00;4.30;99.90
24374;DHT22;12498;50.880;12.096;2022-12-07T14:18:36;4.30;99.90
24374;DHT22;12498;50.880;12.096;2022-12-07T14:23:38;4.30;99.90
24374;DHT22;12498;50.880;12.096;2022-12-07T14:26:12;4.10;99.90
24374;DHT22;12498;50.880;12.096;2022-12-07T14:28:39;4.10;99.90
24374;DHT22;12498;50.880;12.096;2022-12-07T14:31:21;4.00;99.90
24374;DHT22;12498;50.880;12.096;2022-12-07T14:33:49;4.00;99.90
24374;DHT22;12498;50.880;12.096;2022-12-07T14:36:15;3.90;99.90
24374;DHT22;12498;50.880;12.096;2022-12-07T14:38:41;3.90;99.90
24374;DHT22;12498;50.880;12.096;2022-12-07T14:41:14;3.90;99.90
24374;DHT22;12498;50.880;12.096;2022-12-07T14:43:58;4.00;99.90
24374;DHT22;12498;50.880;12.096;2022-12-07T14:46:24;3.80;99.90
24374;DHT22;12498;50.880;12.096;2022-12-07T14:48:50;3.70;99.90
24374;DHT22;12498;50.880;12.096;2022-12-07T14:51:16;3.70;99.90
24374;DHT22;12498;50.880;12.096;2022-12-07T14:53:46;3.70;99.90
24374;DHT22;12498;50.880;12.096;2022-12-07T14:56:13;3.60;99.90
24374;DHT22;12498;50.880;12.096;2022-12-07T14:58:40;3.60;99.90
24374;DHT22;12498;50.880;12.096;2022-12-07T15:01:05;3.50;99.90
24374;DHT22;12498;50.880;12.096;2022-12-07T15:03:31;3.50;99.90
24374;DHT22;12498;50.880;12.096;2022-12-07T15:05:57;3.50;99.90
24374;DHT22;12498;50.880;12.096;2022-12-07T15:08:23;3.50;99.90
24374;DHT22;12498;50.880;12.096;2022-12-07T15:10:48;3.50;99.90
24374;DHT22;12498;50.880;12.096;2022-12-07T15:13:14;3.40;99.90
24374;DHT22;12498;50.880;12.096;2022-12-07T15:15:59;3.40;99.90
24374;DHT22;12498;50.880;12.096;2022-12-07T15:18:25;3.40;99.90
24374;DHT22;12498;50.880;12.096;2022-12-07T15:20:51;3.40;99.90
24374;DHT22;12498;50.880;12.096;2022-12-07T15:23:17;3.40;99.90
24374;DHT22;12498;50.880;12.096;2022-12-07T15:25:44;3.40;99.90
24374;DHT22;12498;50.880;12.096;2022-12-07T15:28:10;3.40;99.90
24374;DHT22;12498;50.880;12.096;2022-12-07T15:30:41;3.40;99.90
24374;DHT22;12498;50.880;12.096;2022-12-07T15:33:08;3.40;99.90
24374;DHT22;12498;50.880;12.096;2022-12-07T15:35:44;3.40;99.90
24374;DHT22;12498;50.880;12.096;2022-12-07T15:38:10;3.40;99.90
24374;DHT22;12498;50.880;12.096;2022-12-07T15:40:36;3.30;99.90
24374;DHT22;12498;50.880;12.096;2022-12-07T15:43:03;3.30;99.90
24374;DHT22;12498;50.880;12.096;2022-12-07T15:45:29;3.30;99.90
24374;DHT22;12498;50.880;12.096;2022-12-07T15:47:55;3.30;99.90
24374;DHT22;12498;50.880;12.096;2022-12-07T15:50:21;3.30;99.90
24374;DHT22;12498;50.880;12.096;2022-12-07T15:52:48;3.20;99.90
24374;DHT22;12498;50.880;12.096;2022-12-07T15:55:16;3.20;99.90
24374;DHT22;12498;50.880;12.096;2022-12-07T15:57:42;3.10;99.90
24374;DHT22;12498;50.880;12.096;2022-12-07T16:00:08;3.10;99.90
24374;DHT22;12498;50.880;12.096;2022-12-07T16:02:36;3.10;99.90
24374;DHT22;12498;50.880;12.096;2022-12-07T16:05:03;3.10;99.90
24374;DHT22;12498;50.880;12.096;2022-12-07T16:07:28;3.10;99.90
24374;DHT22;12498;50.880;12.096;2022-12-07T16:09:54;3.10;99.90
24374;DHT22;12498;50.880;12.096;2022-12-07T16:12:20;3.10;99.90
24374;DHT22;12498;50.880;12.096;2022-12-07T16:14:45;3.10;99.90
24374;DHT22;12498;50.880;12.096;2022-12-07T16:17:11;3.10;99.90
24374;DHT22;12498;50.880;12.096;2022-12-07T16:19:37;3.10;99.90
24374;DHT22;12498;50.880;12.096;2022-12-07T16:22:04;3.10;99.90
24374;DHT22;12498;50.880;12.096;2022-12-07T16:24:30;3.10;99.90
24374;DHT22;12498;50.880;12.096;2022-12-07T16:26:59;3.10;99.90
24374;DHT22;12498;50.880;12.096;2022-12-07T16:29:24;3.10;99.90
24374;DHT22;12498;50.880;12.096;2022-12-07T16:31:51;5.00;99.90
24374;DHT22;12498;50.880;12.096;2022-12-07T16:34:17;3.10;99.90
24374;DHT22;12498;50.880;12.096;2022-12-07T16:36:43;3.00;99.90
24374;DHT22;12498;50.880;12.096;2022-12-07T16:39:08;3.10;99.90
24374;DHT22;12498;50.880;12.096;2022-12-07T16:41:34;3.10;99.90
24374;DHT22;12498;50.880;12.096;2022-12-07T16:44:06;3.00;99.90
24374;DHT22;12498;50.880;12.096;2022-12-07T16:46:34;3.10;99.90
24374;DHT22;12498;50.880;12.096;2022-12-07T16:49:00;3.00;99.90
24374;DHT22;12498;50.880;12.096;2022-12-07T16:51:26;3.00;99.90
24374;DHT22;12498;50.880;12.096;2022-12-07T16:53:52;3.00;99.90
24374;DHT22;12498;50.880;12.096;2022-12-07T16:56:19;3.00;99.90
24374;DHT22;12498;50.880;12.096;2022-12-07T16:58:44;3.00;99.90
24374;DHT22;12498;50.880;12.096;2022-12-07T17:01:14;3.00;99.90
24374;DHT22;12498;50.880;12.096;2022-12-07T17:03:40;3.00;99.90
24374;DHT22;12498;50.880;12.096;2022-12-07T17:06:23;3.00;99.90
24374;DHT22;12498;50.880;12.096;2022-12-07T17:08:50;3.00;99.90
24374;DHT22;12498;50.880;12.096;2022-12-07T17:11:24;3.00;99.90
24374;DHT22;12498;50.880;12.096;2022-12-07T17:13:51;3.00;99.90
24374;DHT22;12498;50.880;12.096;2022-12-07T17:16:35;2.90;99.90
24374;DHT22;12498;50.880;12.096;2022-12-07T17:19:08;3.10;99.90
24374;DHT22;12498;50.880;12.096;2022-12-07T17:21:34;2.90;99.90
24374;DHT22;12498;50.880;12.096;2022-12-07T17:24:02;3.00;99.90
24374;DHT22;12498;50.880;12.096;2022-12-07T17:26:28;3.00;99.90
24374;DHT22;12498;50.880;12.096;2022-12-07T17:28:54;3.00;99.90
24374;DHT22;12498;50.880;12.096;2022-12-07T17:31:21;3.10;99.90
24374;DHT22;12498;50.880;12.096;2022-12-07T17:33:48;3.10;99.90
24374;DHT22;12498;50.880;12.096;2022-12-07T17:38:41;3.10;99.90
24374;DHT22;12498;50.880;12.096;2022-12-07T17:41:15;3.10;99.90
24374;DHT22;12498;50.880;12.096;2022-12-07T17:44:00;3.10;99.90
24374;DHT22;12498;50.880;12.096;2022-12-07T17:46:26;3.10;99.90
24374;DHT22;12498;50.880;12.096;2022-12-07T17:48:56;3.10;99.90
24374;DHT22;12498;50.880;12.096;2022-12-07T17:51:22;3.10;99.90
24374;DHT22;12498;50.880;12.096;2022-12-07T17:54:07;3.10;99.90
24374;DHT22;12498;50.880;12.096;2022-12-07T17:56:32;3.00;99.90
24374;DHT22;12498;50.880;12.096;2022-12-07T17:58:58;3.00;99.90
24374;DHT22;12498;50.880;12.096;2022-12-07T18:01:23;3.00;99.90
24374;DHT22;12498;50.880;12.096;2022-12-07T18:03:49;3.00;99.90
24374;DHT22;12498;50.880;12.096;2022-12-07T18:06:15;3.00;99.90
24374;DHT22;12498;50.880;12.096;2022-12-07T18:08:40;3.00;99.90
24374;DHT22;12498;50.880;12.096;2022-12-07T18:11:06;3.00;99.90
24374;DHT22;12498;50.880;12.096;2022-12-07T18:13:33;3.00;99.90
24374;DHT22;12498;50.880;12.096;2022-12-07T18:16:29;3.10;99.90
24374;DHT22;12498;50.880;12.096;2022-12-07T18:18:59;3.00;99.90
24374;DHT22;12498;50.880;12.096;2022-12-07T18:21:28;3.00;99.90
24374;DHT22;12498;50.880;12.096;2022-12-07T18:23:57;3.00;99.90
24374;DHT22;12498;50.880;12.096;2022-12-07T18:26:24;3.00;99.90
24374;DHT22;12498;50.880;12.096;2022-12-07T18:28:50;3.00;99.90
24374;DHT22;12498;50.880;12.096;2022-12-07T18:31:17;2.90;99.90
24374;DHT22;12498;50.880;12.096;2022-12-07T18:33:44;3.00;99.90
24374;DHT22;12498;50.880;12.096;2022-12-07T18:36:11;3.00;99.90